Time;durP1;ratioP1;P1;durP2;ratioP2;P2;SDS_P1;SDS_P2;PMS_P1;PMS_P2;Temp;Humidity;BMP_temperature;BMP_pressure;BME280_temperature;BME280_humidity;BME280_pressure;Samples;Min_cycle;Max_cycle;Signal;HPM_P1;HPM_P2
2023/09/16 00:01:59;;;;;;;0.10;0.10;;;16.50;46.00;;;;;;5074684;28;20202;-62
2023/09/16 00:04:30;;;;;;;0.00;0.00;;;16.50;46.10;;;;;;5074254;28;20205;-61
2023/09/16 00:07:00;;;;;;;0.00;0.00;;;16.50;46.00;;;;;;5073975;28;20194;-60
2023/09/16 00:09:31;;;;;;;0.10;0.10;;;16.60;46.10;;;;;;5074290;28;20199;-60
2023/09/16 00:12:02;;;;;;;0.10;0.10;;;16.50;45.90;;;;;;5074325;28;20686;-62
2023/09/16 00:14:34;;;;;;;0.10;0.10;;;16.50;45.90;;;;;;5074455;28;20191;-60
2023/09/16 00:17:05;;;;;;;0.10;0.10;;;16.60;45.90;;;;;;5075076;28;20203;-61
2023/09/16 00:19:36;;;;;;;0.10;0.10;;;16.60;45.80;;;;;;5073899;28;20553;-62
2023/09/16 00:22:10;;;;;;;0.10;0.10;;;16.60;45.70;;;;;;5073872;28;20190;-62
2023/09/16 00:24:40;;;;;;;0.00;0.00;;;16.60;45.70;;;;;;5073691;28;20230;-61
2023/09/16 00:27:11;;;;;;;0.10;0.10;;;16.60;45.60;;;;;;5073756;28;20202;-62
2023/09/16 00:29:43;;;;;;;0.10;0.10;;;16.60;45.60;;;;;;5073805;28;20245;-61
2023/09/16 00:32:14;;;;;;;0.10;0.10;;;16.60;45.60;;;;;;5073837;28;20618;-61
2023/09/16 00:34:45;;;;;;;0.10;0.10;;;16.60;45.60;;;;;;5073690;28;20206;-60
2023/09/16 00:37:15;;;;;;;0.10;0.10;;;16.60;45.70;;;;;;5073939;28;20202;-62
2023/09/16 00:39:46;;;;;;;0.00;0.00;;;16.60;45.60;;;;;;5073713;28;20293;-60
2023/09/16 00:42:17;;;;;;;0.00;0.00;;;16.70;46.30;;;;;;5073435;28;20238;-60
2023/09/16 00:44:49;;;;;;;0.00;0.00;;;16.70;45.60;;;;;;5073758;28;20533;-61
2023/09/16 00:47:20;;;;;;;0.00;0.00;;;16.70;45.70;;;;;;5072821;28;20194;-61
2023/09/16 00:49:51;;;;;;;0.00;0.00;;;16.70;45.60;;;;;;5072357;28;21148;-61
2023/09/16 00:52:21;;;;;;;0.00;0.00;;;16.70;45.50;;;;;;5072899;28;20210;-61
2023/09/16 00:54:53;;;;;;;0.10;0.10;;;16.70;45.50;;;;;;5073339;28;20195;-61
2023/09/16 00:57:24;;;;;;;0.10;0.10;;;16.70;45.60;;;;;;5073260;28;20194;-60
2023/09/16 00:59:57;;;;;;;0.10;0.10;;;16.80;45.60;;;;;;5072888;28;20698;-61
2023/09/16 01:02:28;;;;;;;0.10;0.10;;;16.80;45.60;;;;;;5072824;28;20650;-62
2023/09/16 01:05:00;;;;;;;0.03;0.03;;;16.80;45.70;;;;;;5073014;28;20244;-61
2023/09/16 01:07:31;;;;;;;0.00;0.00;;;16.80;45.60;;;;;;5073132;28;20198;-61
2023/09/16 01:10:02;;;;;;;0.03;0.03;;;16.80;45.70;;;;;;5072860;28;20215;-61
2023/09/16 01:12:33;;;;;;;0.10;0.10;;;16.80;45.60;;;;;;5072900;28;20309;-61
2023/09/16 01:15:06;;;;;;;0.10;0.10;;;16.80;45.60;;;;;;5072610;28;20195;-60
2023/09/16 01:17:42;;;;;;;0.10;0.10;;;16.80;45.60;;;;;;5073219;28;20252;-61
2023/09/16 01:20:15;;;;;;;0.05;0.05;;;16.90;45.60;;;;;;5072769;28;20214;-61
2023/09/16 01:22:46;;;;;;;0.00;0.00;;;16.90;45.60;;;;;;5073005;28;20191;-61
2023/09/16 01:25:19;;;;;;;0.10;0.10;;;16.90;45.60;;;;;;5072898;28;20286;-61
2023/09/16 01:27:50;;;;;;;0.00;0.00;;;16.90;45.60;;;;;;5072217;28;20252;-61
2023/09/16 01:30:20;;;;;;;0.00;0.00;;;16.90;45.60;;;;;;5072751;28;20211;-61
2023/09/16 01:32:56;;;;;;;0.10;0.10;;;16.90;45.60;;;;;;5072371;28;20677;-61
2023/09/16 01:35:30;;;;;;;0.00;0.00;;;16.90;45.60;;;;;;5072372;28;20210;-61
2023/09/16 01:38:02;;;;;;;0.05;0.05;;;17.00;45.70;;;;;;5072706;28;20227;-61
2023/09/16 01:40:35;;;;;;;0.00;0.00;;;17.00;45.70;;;;;;5072510;28;20292;-61
2023/09/16 01:43:07;;;;;;;0.00;0.00;;;17.00;45.70;;;;;;5072618;28;20195;-61
2023/09/16 01:45:45;;;;;;;0.10;0.10;;;17.00;45.70;;;;;;5072287;28;20195;-61
2023/09/16 01:48:16;;;;;;;0.10;0.10;;;17.00;45.70;;;;;;5072140;28;20194;-62
2023/09/16 01:50:47;;;;;;;0.00;0.00;;;17.10;45.70;;;;;;5071800;28;20842;-61
2023/09/16 01:53:17;;;;;;;0.00;0.00;;;17.10;45.70;;;;;;5072594;28;20206;-61
2023/09/16 01:55:50;;;;;;;0.10;0.10;;;17.10;45.70;;;;;;5072670;28;20655;-61
2023/09/16 01:58:20;;;;;;;0.00;0.00;;;17.10;45.70;;;;;;5071659;28;20195;-61
2023/09/16 02:00:52;;;;;;;0.00;0.00;;;17.10;45.70;;;;;;5070881;28;20720;-62
2023/09/16 02:03:22;;;;;;;0.00;0.00;;;17.10;45.70;;;;;;5071489;28;20191;-61
2023/09/16 02:05:53;;;;;;;0.10;0.10;;;17.10;45.70;;;;;;5071387;28;20206;-61
2023/09/16 02:08:24;;;;;;;0.05;0.05;;;17.10;45.70;;;;;;5071927;28;20252;-62
2023/09/16 02:10:56;;;;;;;0.00;0.00;;;17.20;45.70;;;;;;5071320;28;20577;-63
2023/09/16 02:13:27;;;;;;;0.10;0.10;;;17.20;45.60;;;;;;5071742;28;20206;-60
2023/09/16 02:15:57;;;;;;;0.00;0.00;;;17.20;45.60;;;;;;5072131;28;20207;-60
2023/09/16 02:18:28;;;;;;;0.00;0.00;;;17.20;45.60;;;;;;5071306;28;20206;-61
2023/09/16 02:20:59;;;;;;;0.10;0.10;;;17.20;45.60;;;;;;5071213;28;20218;-61
2023/09/16 02:23:30;;;;;;;0.03;0.03;;;17.30;45.70;;;;;;5071571;28;20198;-59
2023/09/16 02:26:05;;;;;;;0.00;0.00;;;17.30;45.70;;;;;;5071556;28;20203;-61
2023/09/16 02:28:36;;;;;;;0.00;0.00;;;17.30;45.70;;;;;;5070914;28;20198;-60
2023/09/16 02:31:09;;;;;;;0.00;0.00;;;17.30;45.60;;;;;;5067755;28;20222;-61
2023/09/16 02:33:39;;;;;;;0.00;0.00;;;17.30;45.60;;;;;;5069483;28;20541;-61
2023/09/16 02:36:10;;;;;;;0.10;0.10;;;17.30;45.60;;;;;;5070197;28;20194;-59
2023/09/16 02:38:41;;;;;;;0.10;0.10;;;17.40;45.70;;;;;;5071018;28;20624;-61
2023/09/16 02:41:17;;;;;;;0.03;0.03;;;17.40;45.70;;;;;;5070339;28;20217;-59
2023/09/16 02:43:48;;;;;;;0.10;0.10;;;17.40;45.90;;;;;;5071571;28;20205;-60
2023/09/16 02:46:19;;;;;;;0.00;0.00;;;17.40;46.00;;;;;;5064328;28;20229;-60
2023/09/16 02:48:49;;;;;;;0.00;0.00;;;17.40;46.00;;;;;;5071476;28;20203;-59
2023/09/16 02:51:20;;;;;;;0.00;0.00;;;17.50;46.00;;;;;;5070311;28;20219;-60
2023/09/16 02:53:51;;;;;;;0.10;0.10;;;17.50;46.10;;;;;;5069224;28;20203;-61
2023/09/16 02:56:23;;;;;;;0.03;0.03;;;17.50;46.00;;;;;;5070710;28;20600;-60
2023/09/16 02:58:55;;;;;;;0.10;0.10;;;17.50;46.00;;;;;;5065376;28;20223;-60
2023/09/16 03:01:26;;;;;;;0.08;0.08;;;17.60;46.20;;;;;;5069957;28;20593;-61
2023/09/16 03:03:56;;;;;;;0.00;0.00;;;17.60;46.20;;;;;;5070588;28;20199;-60
2023/09/16 03:06:28;;;;;;;0.00;0.00;;;17.60;46.20;;;;;;5070776;28;20206;-61
2023/09/16 03:08:58;;;;;;;0.03;0.03;;;17.60;46.20;;;;;;5069697;28;20666;-60
2023/09/16 03:11:31;;;;;;;0.00;0.00;;;17.60;46.20;;;;;;5072538;28;20233;-60
2023/09/16 03:14:02;;;;;;;0.08;0.08;;;17.70;46.20;;;;;;5074710;28;20670;-61
2023/09/16 03:16:33;;;;;;;0.03;0.03;;;17.70;46.10;;;;;;5074878;28;20202;-59
2023/09/16 03:19:03;;;;;;;0.00;0.00;;;17.70;46.10;;;;;;5074078;28;20593;-62
2023/09/16 03:21:34;;;;;;;0.10;0.10;;;17.70;46.10;;;;;;5073411;28;20211;-61
2023/09/16 03:24:04;;;;;;;0.00;0.00;;;17.70;46.30;;;;;;5075168;28;20238;-61
2023/09/16 03:26:37;;;;;;;0.10;0.10;;;17.70;46.00;;;;;;5074275;28;20236;-59
2023/09/16 03:29:08;;;;;;;0.00;0.00;;;17.70;46.00;;;;;;5075140;28;20203;-61
2023/09/16 03:31:38;;;;;;;0.00;0.00;;;17.80;46.00;;;;;;5074290;28;20230;-62
2023/09/16 03:34:09;;;;;;;0.10;0.10;;;17.80;45.90;;;;;;5074299;28;20562;-61
2023/09/16 03:36:39;;;;;;;0.10;0.10;;;17.80;45.80;;;;;;5071941;28;20206;-61
2023/09/16 03:39:10;;;;;;;0.10;0.10;;;17.80;45.80;;;;;;5074524;28;20206;-61
2023/09/16 03:41:42;;;;;;;0.00;0.00;;;17.80;45.80;;;;;;5070967;28;20226;-62
2023/09/16 03:44:14;;;;;;;0.05;0.05;;;17.90;45.80;;;;;;5074128;28;20195;-60
2023/09/16 03:46:45;;;;;;;0.00;0.00;;;17.90;45.70;;;;;;5074036;28;20702;-62
2023/09/16 03:49:15;;;;;;;0.10;0.10;;;17.90;45.70;;;;;;5072427;28;20252;-59
2023/09/16 03:51:46;;;;;;;0.00;0.00;;;17.90;45.60;;;;;;5073337;28;20226;-61
2023/09/16 03:54:16;;;;;;;0.00;0.00;;;17.90;45.60;;;;;;5073352;28;20651;-60
2023/09/16 03:56:49;;;;;;;0.10;0.10;;;17.90;45.50;;;;;;5073321;28;20191;-61
2023/09/16 03:59:20;;;;;;;0.03;0.03;;;17.90;45.50;;;;;;5073868;28;20277;-62
2023/09/16 04:01:50;;;;;;;0.10;0.10;;;17.90;45.40;;;;;;5072733;28;20191;-61
2023/09/16 04:04:21;;;;;;;0.10;0.10;;;17.90;45.30;;;;;;5072783;28;20195;-60
2023/09/16 04:06:52;;;;;;;0.00;0.00;;;17.90;45.20;;;;;;5073082;28;20558;-61
2023/09/16 04:09:23;;;;;;;0.00;0.00;;;17.90;45.20;;;;;;5073221;28;20195;-60
2023/09/16 04:11:55;;;;;;;0.08;0.08;;;18.00;45.20;;;;;;5072889;28;20306;-62
2023/09/16 04:14:26;;;;;;;0.10;0.10;;;17.90;45.10;;;;;;5071272;28;20214;-61
2023/09/16 04:16:56;;;;;;;0.00;0.00;;;18.00;45.10;;;;;;5073002;28;20198;-61
2023/09/16 04:19:27;;;;;;;0.00;0.00;;;18.00;45.10;;;;;;5073116;28;20199;-61
2023/09/16 04:21:58;;;;;;;0.10;0.10;;;18.00;45.10;;;;;;5071846;28;20207;-61
2023/09/16 04:24:28;;;;;;;0.00;0.00;;;18.00;45.10;;;;;;5072557;28;20194;-60
2023/09/16 04:27:01;;;;;;;0.10;0.10;;;18.00;45.10;;;;;;5073070;28;20195;-59
2023/09/16 04:29:31;;;;;;;0.00;0.00;;;18.00;45.10;;;;;;5072327;28;20214;-60
2023/09/16 04:32:02;;;;;;;0.10;0.10;;;18.00;45.10;;;;;;5072841;28;20215;-62
2023/09/16 04:34:34;;;;;;;0.10;0.10;;;18.00;45.10;;;;;;5072978;28;20209;-62
2023/09/16 04:37:08;;;;;;;0.10;0.10;;;18.00;45.10;;;;;;5072852;28;20226;-62
2023/09/16 04:39:39;;;;;;;0.10;0.10;;;18.00;45.10;;;;;;5072998;28;20201;-62
2023/09/16 04:42:11;;;;;;;0.00;0.00;;;18.00;45.00;;;;;;5072837;28;20195;-62
2023/09/16 04:44:42;;;;;;;0.10;0.10;;;18.00;45.00;;;;;;5073220;28;20210;-62
2023/09/16 04:47:13;;;;;;;0.10;0.10;;;18.00;45.00;;;;;;5071813;28;20278;-62
2023/09/16 04:49:43;;;;;;;0.10;0.10;;;18.00;44.90;;;;;;5072749;28;20226;-62
2023/09/16 04:52:14;;;;;;;0.10;0.10;;;18.00;44.80;;;;;;5071938;28;20704;-62
2023/09/16 04:54:45;;;;;;;0.00;0.00;;;18.00;44.80;;;;;;5072619;28;20199;-60
2023/09/16 04:57:17;;;;;;;0.10;0.10;;;18.00;44.70;;;;;;5072192;28;20198;-62
2023/09/16 04:59:48;;;;;;;0.05;0.05;;;18.00;44.60;;;;;;5071957;28;20261;-61
2023/09/16 05:02:19;;;;;;;0.10;0.10;;;18.00;44.60;;;;;;5071823;28;20186;-62
2023/09/16 05:04:49;;;;;;;0.00;0.00;;;18.00;44.70;;;;;;5072289;28;20685;-62
2023/09/16 05:07:20;;;;;;;0.00;0.00;;;18.00;44.70;;;;;;5072240;28;20201;-62
2023/09/16 05:09:50;;;;;;;0.10;0.10;;;18.00;44.70;;;;;;5071721;28;20222;-60
2023/09/16 05:12:23;;;;;;;0.00;0.00;;;18.00;44.70;;;;;;5065628;28;20698;-62
2023/09/16 05:14:54;;;;;;;0.00;0.00;;;18.00;44.60;;;;;;5071752;28;20191;-60
2023/09/16 05:17:24;;;;;;;0.00;0.00;;;18.00;44.50;;;;;;5071523;28;20199;-61
2023/09/16 05:19:55;;;;;;;0.00;0.00;;;18.00;44.50;;;;;;5072591;28;20221;-62
2023/09/16 05:22:25;;;;;;;0.00;0.00;;;18.00;44.50;;;;;;5071179;28;20199;-62
2023/09/16 05:24:56;;;;;;;0.03;0.03;;;18.00;44.40;;;;;;5072088;28;20597;-61
2023/09/16 05:27:28;;;;;;;0.10;0.10;;;18.00;44.40;;;;;;5072294;28;20199;-62
2023/09/16 05:30:01;;;;;;;0.10;0.10;;;18.00;44.40;;;;;;5072199;28;20222;-62
2023/09/16 05:32:32;;;;;;;0.00;0.00;;;18.00;44.40;;;;;;5071288;28;20689;-61
2023/09/16 05:35:02;;;;;;;0.10;0.10;;;18.00;44.40;;;;;;5071441;28;20563;-60
2023/09/16 05:37:33;;;;;;;0.00;0.00;;;18.00;44.40;;;;;;5071297;28;20198;-61
2023/09/16 05:40:04;;;;;;;0.10;0.10;;;18.00;44.40;;;;;;5071976;28;20219;-60
2023/09/16 05:42:36;;;;;;;0.00;0.00;;;18.00;44.40;;;;;;5071085;28;20194;-60
2023/09/16 05:45:08;;;;;;;0.00;0.00;;;18.00;44.40;;;;;;5071863;28;21695;-61
2023/09/16 05:47:38;;;;;;;0.00;0.00;;;18.00;44.40;;;;;;5070317;28;20190;-60
2023/09/16 05:50:09;;;;;;;0.05;0.05;;;18.00;44.40;;;;;;5071645;28;20215;-62
2023/09/16 05:52:40;;;;;;;0.10;0.10;;;18.00;44.40;;;;;;5071561;28;20689;-61
2023/09/16 05:55:11;;;;;;;0.10;0.10;;;18.00;44.30;;;;;;5071282;28;20201;-62
2023/09/16 05:57:43;;;;;;;0.10;0.10;;;18.00;44.20;;;;;;5072038;28;20194;-62
2023/09/16 06:00:14;;;;;;;0.00;0.00;;;18.00;44.20;;;;;;5071235;28;20218;-62
2023/09/16 06:02:45;;;;;;;0.10;0.10;;;18.00;44.20;;;;;;5071093;28;20191;-62
2023/09/16 06:05:16;;;;;;;0.00;0.00;;;18.00;44.10;;;;;;5071047;28;20674;-62
2023/09/16 06:07:46;;;;;;;0.00;0.00;;;18.00;44.10;;;;;;5070650;28;20183;-60
2023/09/16 06:10:17;;;;;;;0.10;0.10;;;18.00;44.10;;;;;;5071128;28;20222;-59
2023/09/16 06:12:50;;;;;;;0.00;0.00;;;18.00;44.10;;;;;;5070770;28;20617;-59
2023/09/16 06:15:21;;;;;;;0.00;0.00;;;18.00;44.20;;;;;;5071122;28;20195;-59
2023/09/16 06:17:51;;;;;;;0.00;0.00;;;18.00;44.20;;;;;;5069657;28;20686;-61
2023/09/16 06:20:22;;;;;;;0.00;0.00;;;18.00;44.30;;;;;;5071116;28;20223;-59
2023/09/16 06:22:53;;;;;;;0.10;0.10;;;18.00;44.30;;;;;;5069881;28;20205;-61
2023/09/16 06:25:23;;;;;;;0.10;0.10;;;18.00;44.30;;;;;;5071193;28;20190;-61
2023/09/16 06:27:56;;;;;;;0.10;0.10;;;18.00;44.30;;;;;;5070565;28;20678;-61
2023/09/16 06:30:26;;;;;;;0.10;0.10;;;18.00;44.30;;;;;;5070454;28;20250;-62
2023/09/16 06:32:57;;;;;;;0.00;0.00;;;18.00;44.40;;;;;;5070238;28;20221;-61
2023/09/16 06:35:28;;;;;;;0.03;0.03;;;18.00;44.30;;;;;;5071390;28;20207;-61
2023/09/16 06:37:58;;;;;;;0.00;0.00;;;18.00;44.30;;;;;;5071019;28;20222;-60
2023/09/16 06:40:29;;;;;;;0.00;0.00;;;18.00;44.30;;;;;;5069931;28;20218;-59
2023/09/16 06:43:03;;;;;;;0.00;0.00;;;18.00;44.30;;;;;;5071005;28;20221;-59
2023/09/16 06:45:34;;;;;;;0.00;0.00;;;18.00;44.30;;;;;;5069666;28;20186;-61
2023/09/16 06:48:04;;;;;;;0.10;0.10;;;18.00;44.30;;;;;;5070431;28;20191;-60
2023/09/16 06:50:35;;;;;;;0.00;0.00;;;18.00;44.40;;;;;;5069735;28;20215;-61
2023/09/16 06:53:06;;;;;;;0.10;0.10;;;18.00;44.40;;;;;;5070754;28;20218;-60
2023/09/16 06:55:38;;;;;;;0.10;0.10;;;18.00;44.40;;;;;;5070940;28;20207;-60
2023/09/16 06:58:10;;;;;;;0.00;0.00;;;18.00;44.40;;;;;;5070172;28;20214;-60
2023/09/16 07:00:41;;;;;;;0.00;0.00;;;18.00;44.50;;;;;;5070557;28;20490;-61
2023/09/16 07:03:11;;;;;;;0.00;0.00;;;18.00;44.50;;;;;;5070751;28;20260;-61
2023/09/16 07:05:47;;;;;;;0.05;0.05;;;18.00;44.60;;;;;;5070200;28;20203;-60
2023/09/16 07:08:18;;;;;;;0.10;0.10;;;18.00;44.60;;;;;;5070225;28;20194;-60
2023/09/16 07:10:49;;;;;;;0.00;0.00;;;18.00;44.60;;;;;;5070727;28;20214;-61
2023/09/16 07:13:21;;;;;;;0.10;0.10;;;18.00;44.60;;;;;;5071097;28;20226;-61
2023/09/16 07:15:56;;;;;;;0.10;0.10;;;18.00;44.60;;;;;;5070463;28;20198;-59
2023/09/16 07:18:26;;;;;;;0.10;0.10;;;17.90;44.60;;;;;;5070668;28;20542;-61
2023/09/16 07:20:57;;;;;;;0.00;0.00;;;18.00;44.60;;;;;;5070986;28;20222;-61
2023/09/16 07:23:28;;;;;;;0.10;0.10;;;17.90;44.60;;;;;;5070983;28;20233;-61
2023/09/16 07:26:00;;;;;;;0.00;0.00;;;17.90;44.60;;;;;;5071261;28;20198;-61
2023/09/16 07:28:32;;;;;;;0.10;0.10;;;17.90;44.60;;;;;;5071055;28;20195;-62
2023/09/16 07:31:03;;;;;;;0.00;0.00;;;17.90;44.60;;;;;;5070050;28;20625;-61
2023/09/16 07:33:34;;;;;;;0.00;0.00;;;17.90;44.60;;;;;;5070808;28;20233;-62
2023/09/16 07:36:04;;;;;;;0.05;0.05;;;17.90;44.70;;;;;;5071023;28;20194;-61
2023/09/16 07:38:35;;;;;;;0.08;0.08;;;17.90;44.70;;;;;;5070760;28;20203;-62
2023/09/16 07:41:05;;;;;;;0.10;0.10;;;17.90;44.70;;;;;;5069669;28;20207;-61
2023/09/16 07:43:38;;;;;;;0.00;0.00;;;17.90;44.80;;;;;;5070659;28;20191;-61
2023/09/16 07:46:08;;;;;;;0.00;0.00;;;17.90;44.80;;;;;;5070634;28;20203;-62
2023/09/16 07:48:39;;;;;;;0.00;0.00;;;17.90;44.80;;;;;;5070997;28;20206;-62
2023/09/16 07:51:10;;;;;;;0.00;0.00;;;17.90;44.80;;;;;;5070586;28;20686;-61
2023/09/16 07:53:40;;;;;;;0.00;0.00;;;17.90;44.90;;;;;;5070579;28;20226;-62
2023/09/16 07:56:11;;;;;;;0.00;0.00;;;17.90;44.90;;;;;;5070467;28;20191;-63
2023/09/16 07:58:43;;;;;;;0.00;0.00;;;17.90;44.90;;;;;;5074354;28;20191;-62
2023/09/16 08:01:14;;;;;;;0.00;0.00;;;18.00;44.90;;;;;;5074495;28;20226;-60
2023/09/16 08:03:44;;;;;;;0.00;0.00;;;17.90;44.90;;;;;;5074454;28;20194;-59
2023/09/16 08:06:15;;;;;;;0.00;0.00;;;17.90;44.90;;;;;;5074124;28;20562;-61
2023/09/16 08:08:46;;;;;;;0.00;0.00;;;17.90;44.90;;;;;;5074052;28;20203;-62
2023/09/16 08:11:17;;;;;;;0.00;0.00;;;17.90;44.90;;;;;;5073654;28;20215;-61
2023/09/16 08:13:51;;;;;;;0.00;0.00;;;17.90;44.90;;;;;;5073748;28;20659;-62
2023/09/16 08:16:22;;;;;;;0.10;0.10;;;17.90;44.90;;;;;;5073332;28;20194;-62
2023/09/16 08:18:56;;;;;;;0.10;0.10;;;17.90;45.00;;;;;;5074011;28;20191;-62
2023/09/16 08:21:26;;;;;;;0.10;0.10;;;17.90;45.00;;;;;;5074127;28;20279;-61
2023/09/16 08:23:57;;;;;;;0.10;0.10;;;17.90;45.10;;;;;;5073776;28;20195;-62
2023/09/16 08:26:28;;;;;;;0.00;0.00;;;17.90;45.10;;;;;;5073754;28;20206;-61
2023/09/16 08:29:01;;;;;;;0.00;0.00;;;17.90;45.10;;;;;;5073741;28;20217;-62
2023/09/16 08:31:32;;;;;;;0.00;0.00;;;17.90;45.10;;;;;;5073184;28;20214;-62
2023/09/16 08:34:04;;;;;;;0.10;0.10;;;17.90;45.20;;;;;;5073818;28;20222;-63
2023/09/16 08:36:35;;;;;;;0.10;0.10;;;17.90;45.20;;;;;;5053600;28;20203;-61
2023/09/16 08:39:06;;;;;;;0.10;0.10;;;17.90;45.10;;;;;;5053783;28;20195;-62
2023/09/16 08:41:43;;;;;;;0.00;0.00;;;17.90;45.80;;;;;;5059937;28;20215;-59
2023/09/16 08:44:17;;;;;;;0.10;0.10;;;17.90;45.20;;;;;;5073377;28;20205;-62
2023/09/16 08:46:53;;;;;;;0.10;0.10;;;17.90;45.20;;;;;;5072963;28;20199;-62
2023/09/16 08:49:30;;;;;;;0.00;0.00;;;17.90;45.20;;;;;;5072909;28;20199;-62
2023/09/16 08:52:02;;;;;;;0.10;0.10;;;17.90;45.20;;;;;;5072674;28;20244;-61
2023/09/16 08:54:34;;;;;;;0.00;0.00;;;17.90;45.20;;;;;;5066370;28;20706;-62
2023/09/16 08:57:06;;;;;;;0.00;0.00;;;17.90;45.20;;;;;;5072887;28;20225;-63
2023/09/16 08:59:39;;;;;;;0.00;0.00;;;17.90;45.30;;;;;;5072265;28;20194;-60
2023/09/16 09:02:12;;;;;;;0.00;0.00;;;17.90;45.30;;;;;;5072368;28;20669;-63
2023/09/16 09:04:44;;;;;;;0.00;0.00;;;17.90;45.30;;;;;;5072444;28;20203;-60
2023/09/16 09:07:15;;;;;;;0.10;0.10;;;17.90;45.30;;;;;;5072360;28;20210;-60
2023/09/16 09:09:46;;;;;;;0.00;0.00;;;17.90;45.40;;;;;;5071524;28;20276;-59
2023/09/16 09:12:17;;;;;;;0.10;0.10;;;17.90;45.40;;;;;;5072939;28;20191;-62
2023/09/16 09:14:50;;;;;;;0.00;0.00;;;17.90;45.50;;;;;;5070570;28;20721;-61
2023/09/16 09:17:21;;;;;;;0.10;0.10;;;17.90;45.50;;;;;;5072157;28;20199;-63
2023/09/16 09:19:53;;;;;;;0.10;0.10;;;17.90;45.50;;;;;;5072260;28;20219;-61
2023/09/16 09:22:24;;;;;;;0.08;0.08;;;17.90;45.50;;;;;;5072634;28;20545;-62
2023/09/16 09:24:55;;;;;;;0.00;0.00;;;17.90;45.50;;;;;;5072658;28;20197;-62
2023/09/16 09:27:26;;;;;;;0.05;0.05;;;17.90;45.50;;;;;;5072460;28;20209;-62
2023/09/16 09:29:58;;;;;;;0.10;0.10;;;17.90;45.50;;;;;;5070940;28;20237;-62
2023/09/16 09:32:32;;;;;;;0.10;0.10;;;17.90;45.60;;;;;;5071229;28;20195;-63
2023/09/16 09:35:09;;;;;;;0.00;0.00;;;17.90;45.60;;;;;;5072005;28;20272;-62
2023/09/16 09:37:39;;;;;;;0.00;0.00;;;17.90;45.60;;;;;;5071144;28;20194;-62
2023/09/16 09:40:11;;;;;;;0.03;0.03;;;17.90;45.60;;;;;;5062096;28;20699;-60
2023/09/16 09:42:46;;;;;;;0.03;0.03;;;17.90;45.60;;;;;;5071627;28;20218;-61
2023/09/16 09:45:20;;;;;;;0.05;0.05;;;17.90;45.60;;;;;;5067449;28;20574;-61
2023/09/16 09:47:52;;;;;;;0.00;0.00;;;17.90;45.70;;;;;;5071993;28;20191;-62
2023/09/16 09:50:24;;;;;;;0.00;0.00;;;17.90;45.70;;;;;;5071358;28;20585;-61
2023/09/16 09:52:56;;;;;;;0.00;0.00;;;17.90;45.80;;;;;;5071280;28;20187;-61
2023/09/16 09:55:31;;;;;;;0.00;0.00;;;17.90;45.80;;;;;;5071437;28;20273;-63
2023/09/16 09:58:02;;;;;;;0.00;0.00;;;17.90;45.80;;;;;;5070859;28;20190;-62
2023/09/16 10:00:35;;;;;;;0.10;0.10;;;17.90;46.10;;;;;;5070315;28;20217;-61
2023/09/16 10:03:06;;;;;;;0.00;0.00;;;17.90;45.80;;;;;;5071033;28;20210;-62
2023/09/16 10:05:37;;;;;;;0.00;0.00;;;17.90;45.80;;;;;;5071358;28;20195;-62
2023/09/16 10:08:08;;;;;;;0.05;0.05;;;17.90;45.80;;;;;;5071529;28;20191;-59
2023/09/16 10:10:39;;;;;;;0.00;0.00;;;18.00;45.90;;;;;;5071082;28;20226;-61
2023/09/16 10:13:11;;;;;;;0.00;0.00;;;17.90;45.90;;;;;;5070557;28;20211;-61
2023/09/16 10:15:44;;;;;;;0.00;0.00;;;18.00;45.90;;;;;;5071416;28;20234;-61
2023/09/16 10:18:16;;;;;;;0.00;0.00;;;18.00;45.90;;;;;;5070646;28;20202;-60
2023/09/16 10:20:47;;;;;;;0.00;0.00;;;17.90;45.90;;;;;;5070831;28;20211;-60
2023/09/16 10:23:18;;;;;;;0.10;0.10;;;18.00;46.00;;;;;;5070875;28;20195;-60
2023/09/16 10:25:48;;;;;;;0.10;0.10;;;18.00;45.90;;;;;;5070751;28;20230;-61
2023/09/16 10:28:20;;;;;;;0.10;0.10;;;18.00;46.00;;;;;;5071063;28;20209;-59
2023/09/16 10:30:53;;;;;;;0.08;0.08;;;18.00;46.00;;;;;;5071455;28;20222;-60
2023/09/16 10:33:25;;;;;;;0.10;0.10;;;18.00;46.00;;;;;;5071027;28;20203;-61
2023/09/16 10:35:56;;;;;;;0.10;0.10;;;18.00;46.00;;;;;;5070708;28;20584;-59
2023/09/16 10:38:27;;;;;;;0.10;0.10;;;18.00;46.00;;;;;;5070608;28;20205;-61
2023/09/16 10:40:58;;;;;;;0.10;0.10;;;18.00;46.10;;;;;;5070340;28;20682;-60
2023/09/16 10:43:29;;;;;;;0.00;0.00;;;18.00;46.10;;;;;;5070997;28;20198;-60
2023/09/16 10:46:03;;;;;;;0.10;0.10;;;18.00;46.10;;;;;;5070521;28;20530;-58
2023/09/16 10:48:33;;;;;;;0.05;0.05;;;18.00;46.10;;;;;;5071090;28;20190;-61
2023/09/16 10:51:08;;;;;;;0.00;0.00;;;18.00;46.10;;;;;;5070725;28;20534;-60
2023/09/16 10:53:40;;;;;;;0.10;0.10;;;18.00;46.10;;;;;;5070645;28;20631;-60
2023/09/16 10:56:20;;;;;;;0.00;0.00;;;18.00;46.10;;;;;;5070517;28;20654;-60
2023/09/16 10:58:58;;;;;;;0.00;0.00;;;18.00;46.70;;;;;;5070473;28;20276;-61
2023/09/16 11:01:36;;;;;;;0.00;0.00;;;18.00;46.10;;;;;;5070673;28;20245;-60
2023/09/16 11:04:14;;;;;;;0.03;0.03;;;18.00;46.20;;;;;;5070215;28;20195;-60
2023/09/16 11:06:48;;;;;;;0.00;0.00;;;18.00;46.20;;;;;;5069708;28;20256;-61
2023/09/16 11:09:20;;;;;;;0.10;0.10;;;18.10;46.20;;;;;;5069616;28;20327;-61
2023/09/16 11:11:51;;;;;;;0.08;0.08;;;18.10;46.20;;;;;;5069952;28;20198;-61
2023/09/16 11:14:23;;;;;;;0.08;0.08;;;18.10;46.20;;;;;;5069825;28;20257;-60
2023/09/16 11:16:56;;;;;;;0.00;0.00;;;18.10;46.20;;;;;;5070886;28;20218;-60
2023/09/16 11:19:28;;;;;;;0.00;0.00;;;18.00;46.20;;;;;;5070928;28;20193;-59
2023/09/16 11:22:00;;;;;;;0.10;0.10;;;18.10;46.20;;;;;;5069790;28;20187;-60
2023/09/16 11:24:31;;;;;;;0.10;0.10;;;18.10;46.30;;;;;;5070220;28;20222;-60
2023/09/16 11:27:02;;;;;;;0.08;0.08;;;18.10;46.30;;;;;;5070487;28;20194;-60
2023/09/16 11:29:33;;;;;;;0.00;0.00;;;18.10;46.30;;;;;;5071057;28;20199;-60
2023/09/16 11:32:08;;;;;;;0.10;0.10;;;18.10;46.30;;;;;;5072277;28;20205;-60
2023/09/16 11:34:42;;;;;;;0.00;0.00;;;18.10;46.30;;;;;;5073542;28;20716;-60
2023/09/16 11:37:14;;;;;;;0.00;0.00;;;18.10;46.30;;;;;;5073774;28;20210;-60
2023/09/16 11:39:48;;;;;;;0.00;0.00;;;18.10;46.30;;;;;;5074236;28;20583;-61
2023/09/16 11:42:19;;;;;;;0.08;0.08;;;18.10;46.30;;;;;;5073965;28;20190;-61
2023/09/16 11:44:50;;;;;;;0.00;0.00;;;18.00;46.20;;;;;;5073772;28;20206;-62
2023/09/16 11:47:22;;;;;;;0.00;0.00;;;18.10;46.30;;;;;;5074775;28;20202;-60
2023/09/16 11:49:53;;;;;;;0.00;0.00;;;18.10;46.30;;;;;;5074782;28;20245;-60
2023/09/16 11:52:25;;;;;;;0.00;0.00;;;18.10;46.40;;;;;;5073949;28;20244;-61
2023/09/16 11:54:56;;;;;;;0.00;0.00;;;18.10;46.30;;;;;;5074359;28;20760;-60
2023/09/16 11:57:27;;;;;;;0.10;0.10;;;18.10;46.30;;;;;;5074311;28;20230;-61
2023/09/16 11:59:58;;;;;;;0.08;0.08;;;18.10;46.30;;;;;;5074443;28;20221;-61
2023/09/16 12:02:32;;;;;;;0.10;0.10;;;18.10;46.40;;;;;;5074530;28;20400;-61
2023/09/16 12:05:03;;;;;;;0.00;0.00;;;18.10;46.40;;;;;;5074341;28;20202;-60
2023/09/16 12:07:34;;;;;;;0.10;0.10;;;18.10;46.40;;;;;;5073783;28;20234;-61
2023/09/16 12:10:05;;;;;;;0.00;0.00;;;18.10;46.40;;;;;;5073790;28;20215;-60
2023/09/16 12:12:36;;;;;;;0.00;0.00;;;18.10;46.40;;;;;;5073966;28;20209;-61
2023/09/16 12:15:07;;;;;;;0.00;0.00;;;18.20;46.50;;;;;;5074212;28;20717;-59
2023/09/16 12:17:40;;;;;;;0.00;0.00;;;18.20;46.50;;;;;;5074113;28;20207;-61
2023/09/16 12:20:13;;;;;;;0.00;0.00;;;18.10;46.40;;;;;;5074247;28;20226;-60
2023/09/16 12:22:48;;;;;;;0.08;0.08;;;18.20;46.50;;;;;;5073656;28;20195;-60
2023/09/16 12:25:18;;;;;;;0.10;0.10;;;18.20;46.40;;;;;;5073577;28;20223;-62
2023/09/16 12:27:49;;;;;;;0.00;0.00;;;18.20;46.50;;;;;;5073727;28;20199;-61
2023/09/16 12:30:20;;;;;;;0.00;0.00;;;18.20;46.50;;;;;;5073873;28;20210;-60
2023/09/16 12:32:58;;;;;;;0.08;0.08;;;18.20;46.50;;;;;;5073748;28;20202;-62
2023/09/16 12:35:29;;;;;;;0.10;0.10;;;18.20;46.60;;;;;;5072606;28;20222;-63
2023/09/16 12:38:03;;;;;;;0.00;0.00;;;18.20;46.50;;;;;;5073919;28;20199;-62
2023/09/16 12:40:34;;;;;;;0.00;0.00;;;18.20;46.60;;;;;;5073951;28;20219;-61
2023/09/16 12:43:08;;;;;;;0.00;0.00;;;18.20;46.60;;;;;;5072740;28;20195;-63
2023/09/16 12:45:39;;;;;;;0.08;0.08;;;18.20;46.60;;;;;;5073484;28;20655;-61
2023/09/16 12:48:12;;;;;;;0.05;0.05;;;18.20;46.60;;;;;;5073869;28;20194;-61
2023/09/16 12:50:43;;;;;;;0.10;0.10;;;18.20;46.60;;;;;;5072809;28;20214;-61
2023/09/16 12:53:14;;;;;;;0.00;0.00;;;18.20;46.60;;;;;;5072933;28;20598;-62
2023/09/16 12:55:49;;;;;;;0.00;0.00;;;18.20;46.60;;;;;;5073590;28;20309;-59
2023/09/16 12:58:21;;;;;;;0.00;0.00;;;18.20;46.60;;;;;;5073601;28;20202;-60
2023/09/16 13:00:52;;;;;;;0.00;0.00;;;18.20;46.60;;;;;;5073195;28;20215;-59
2023/09/16 13:03:25;;;;;;;0.05;0.05;;;18.20;46.60;;;;;;5073195;28;20285;-60
2023/09/16 13:05:59;;;;;;;0.08;0.08;;;18.30;46.60;;;;;;5073078;28;20230;-60
2023/09/16 13:08:29;;;;;;;0.08;0.08;;;18.30;46.60;;;;;;5072984;28;20194;-58
2023/09/16 13:11:00;;;;;;;0.05;0.05;;;18.30;46.60;;;;;;5073394;28;20219;-61